Time,TemperatureF,DewpointF,PressureIn,WindDirection,WindDirectionDegrees,WindSpeedMPH,WindSpeedGustMPH,Humidity,HourlyPrecipIn,Conditions,Clouds,dailyrainin,SoftwareType,DateUTC
2013-08-03 00:02:00,54.9,52.9,29.96,NW,314,1.0,5.0,93,0.00,,,0.00,WeatherCatV1.21B27,2013-08-03 07:02:00,
2013-08-03 00:07:00,54.9,52.9,29.97,WNW,294,3.0,8.0,93,0.00,,,0.00,WeatherCatV1.21B27,2013-08-03 07:07:00,
2013-08-03 00:12:00,54.9,52.9,29.97,NW,306,1.0,6.0,93,0.00,,,0.00,WeatherCatV1.21B27,2013-08-03 07:12:00,
2013-08-03 00:17:00,54.9,52.9,29.97,WNW,292,2.0,5.0,93,0.00,,,0.00,WeatherCatV1.21B27,2013-08-03 07:17:00,
2013-08-03 00:22:00,54.9,52.9,29.97,WNW,292,3.0,6.0,93,0.00,,,0.00,WeatherCatV1.21B27,2013-08-03 07:22:00,
2013-08-03 00:27:00,54.9,52.9,29.97,WNW,285,2.0,10.0,93,0.00,,,0.00,WeatherCatV1.21B27,2013-08-03 07:27:00,
2013-08-03 00:32:00,54.9,52.9,29.97,WNW,290,7.0,11.0,93,0.00,,,0.00,WeatherCatV1.21B27,2013-08-03 07:32:00,
2013-08-03 00:37:00,54.7,52.7,29.97,West,272,10.0,12.0,93,0.00,,,0.00,WeatherCatV1.21B27,2013-08-03 07:37:00,
2013-08-03 00:42:00,54.7,52.7,29.97,West,262,6.0,8.0,93,0.00,,,0.00,WeatherCatV1.21B27,2013-08-03 07:42:00,
2013-08-03 00:47:00,54.7,52.7,29.97,WNW,287,5.0,5.0,93,0.00,,,0.00,WeatherCatV1.21B27,2013-08-03 07:47:00,
2013-08-03 00:52:00,54.7,52.7,29.97,West,269,8.0,9.0,93,0.00,,,0.00,WeatherCatV1.21B27,2013-08-03 07:52:00,
2013-08-03 00:57:00,54.6,52.6,29.97,West,275,4.0,5.0,93,0.00,,,0.00,WeatherCatV1.21B27,2013-08-03 07:57:00,
2013-08-03 01:02:00,54.6,52.6,29.97,WNW,290,8.0,8.0,93,0.00,,,0.00,WeatherCatV1.21B27,2013-08-03 08:02:00,
2013-08-03 01:07:00,54.6,52.6,29.97,West,276,6.0,10.0,93,0.00,,,0.00,WeatherCatV1.21B27,2013-08-03 08:07:00,
2013-08-03 01:12:00,54.6,52.6,29.97,WNW,292,4.0,7.0,93,0.00,,,0.00,WeatherCatV1.21B27,2013-08-03 08:12:00,
2013-08-03 01:17:00,54.7,52.7,29.97,West,275,10.0,12.0,93,0.00,,,0.00,WeatherCatV1.21B27,2013-08-03 08:17:00,
2013-08-03 01:22:00,54.7,53.0,29.97,West,274,9.0,11.0,94,0.00,,,0.00,WeatherCatV1.21B27,2013-08-03 08:22:00,
2013-08-03 01:27:00,54.7,53.0,29.97,West,273,6.0,7.0,94,0.00,,,0.00,WeatherCatV1.21B27,2013-08-03 08:27:00,
2013-08-03 01:32:00,54.7,52.7,29.97,WNW,292,9.0,11.0,93,0.00,,,0.00,WeatherCatV1.21B27,2013-08-03 08:32:00,
2013-08-03 01:37:00,54.6,52.6,29.96,West,270,10.0,11.0,93,0.00,,,0.00,WeatherCatV1.21B27,2013-08-03 08:37:00,
2013-08-03 01:42:00,54.6,52.6,29.97,WNW,298,8.0,9.0,93,0.00,,,0.00,WeatherCatV1.21B27,2013-08-03 08:42:00,
2013-08-03 01:47:00,54.5,52.5,29.97,WSW,246,9.0,10.0,93,0.00,,,0.00,WeatherCatV1.21B27,2013-08-03 08:47:00,
2013-08-03 01:52:00,54.6,52.6,29.96,WSW,258,8.0,9.0,93,0.00,,,0.00,WeatherCatV1.21B27,2013-08-03 08:52:00,
2013-08-03 01:57:00,54.6,52.9,29.96,WSW,249,12.0,13.0,94,0.00,,,0.00,WeatherCatV1.21B27,2013-08-03 08:57:00,
2013-08-03 02:02:00,54.6,52.6,29.96,West,275,5.0,14.0,93,0.00,,,0.00,WeatherCatV1.21B27,2013-08-03 09:02:00,
2013-08-03 02:07:00,54.6,52.6,29.96,West,274,8.0,15.0,93,0.00,,,0.00,WeatherCatV1.21B27,2013-08-03 09:07:00,
2013-08-03 02:12:00,54.6,52.6,29.96,WSW,252,8.0,11.0,93,0.00,,,0.00,WeatherCatV1.21B27,2013-08-03 09:12:00,
2013-08-03 02:17:00,54.5,52.5,29.96,West,277,4.0,10.0,93,0.00,,,0.00,WeatherCatV1.21B27,2013-08-03 09:17:00,
2013-08-03 02:22:00,54.5,52.5,29.96,WSW,250,10.0,12.0,93,0.00,,,0.00,WeatherCatV1.21B27,2013-08-03 09:22:00,
2013-08-03 02:27:00,54.5,52.5,29.96,WNW,291,8.0,14.0,93,0.00,,,0.00,WeatherCatV1.21B27,2013-08-03 09:27:00,
2013-08-03 02:32:00,54.4,52.7,29.96,West,273,10.0,15.0,94,0.00,,,0.00,WeatherCatV1.21B27,2013-08-03 09:32:00,
2013-08-03 02:37:00,54.4,52.7,29.96,WNW,293,13.0,13.0,94,0.00,,,0.00,WeatherCatV1.21B27,2013-08-03 09:37:00,
2013-08-03 02:42:00,54.3,52.6,29.96,WNW,284,9.0,13.0,94,0.00,,,0.00,WeatherCatV1.21B27,2013-08-03 09:42:00,
2013-08-03 02:47:00,54.3,52.6,29.96,West,277,4.0,8.0,94,0.00,,,0.00,WeatherCatV1.21B27,2013-08-03 09:47:00,
2013-08-03 02:52:00,54.2,52.5,29.96,WNW,288,5.0,9.0,94,0.00,,,0.00,WeatherCatV1.21B27,2013-08-03 09:52:00,
2013-08-03 02:57:00,54.2,52.5,29.96,West,278,6.0,12.0,94,0.00,,,0.00,WeatherCatV1.21B27,2013-08-03 09:57:00,
2013-08-03 03:02:00,54.2,52.5,29.96,West,271,6.0,11.0,94,0.00,,,0.00,WeatherCatV1.21B27,2013-08-03 10:02:00,
2013-08-03 03:07:00,54.2,52.5,29.96,WNW,287,7.0,12.0,94,0.00,,,0.00,WeatherCatV1.21B27,2013-08-03 10:07:00,
2013-08-03 03:12:00,54.2,52.5,29.96,WNW,290,7.0,7.0,94,0.00,,,0.00,WeatherCatV1.21B27,2013-08-03 10:12:00,
2013-08-03 03:17:00,54.2,52.5,29.96,West,263,3.0,9.0,94,0.00,,,0.00,WeatherCatV1.21B27,2013-08-03 10:17:00,
2013-08-03 03:22:00,54.2,52.5,29.96,WNW,283,8.0,12.0,94,0.00,,,0.00,WeatherCatV1.21B27,2013-08-03 10:22:00,
2013-08-03 03:27:00,54.2,52.5,29.97,West,262,7.0,7.0,94,0.00,,,0.00,WeatherCatV1.21B27,2013-08-03 10:27:00,
2013-08-03 03:32:00,54.2,52.5,29.97,WNW,285,4.0,6.0,94,0.00,,,0.00,WeatherCatV1.21B27,2013-08-03 10:32:00,
2013-08-03 03:38:00,54.2,52.5,29.97,West,277,2.0,9.0,94,0.00,,,0.00,WeatherCatV1.21B27,2013-08-03 10:38:00,
2013-08-03 03:43:00,54.3,52.6,29.97,WNW,283,7.0,7.0,94,0.00,,,0.00,WeatherCatV1.21B27,2013-08-03 10:43:00,
2013-08-03 03:48:00,54.2,52.5,29.97,WNW,294,6.0,8.0,94,0.00,,,0.00,WeatherCatV1.21B27,2013-08-03 10:48:00,
2013-08-03 03:53:00,54.1,52.4,29.97,WNW,286,7.0,9.0,94,0.00,,,0.00,WeatherCatV1.21B27,2013-08-03 10:53:00,
2013-08-03 03:58:00,54.0,52.3,29.97,West,281,4.0,8.0,94,0.00,,,0.00,WeatherCatV1.21B27,2013-08-03 10:58:00,
2013-08-03 04:03:00,54.1,52.4,29.97,WNW,282,1.0,9.0,94,0.00,,,0.00,WeatherCatV1.21B27,2013-08-03 11:03:00,
2013-08-03 04:08:00,53.9,52.2,29.97,NW,314,2.0,10.0,94,0.00,,,0.00,WeatherCatV1.21B27,2013-08-03 11:08:00,
2013-08-03 04:13:00,53.9,52.2,29.97,WNW,294,6.0,9.0,94,0.00,,,0.00,WeatherCatV1.21B27,2013-08-03 11:13:00,
2013-08-03 04:18:00,53.8,52.4,29.97,WNW,284,6.0,10.0,95,0.00,,,0.00,WeatherCatV1.21B27,2013-08-03 11:18:00,
2013-08-03 04:23:00,53.7,52.0,29.97,WNW,285,6.0,8.0,94,0.00,,,0.00,WeatherCatV1.21B27,2013-08-03 11:23:00,
2013-08-03 04:28:00,53.7,52.0,29.97,WNW,294,8.0,12.0,94,0.00,,,0.00,WeatherCatV1.21B27,2013-08-03 11:28:00,
2013-08-03 04:33:00,53.7,52.0,29.97,West,273,9.0,11.0,94,0.00,,,0.00,WeatherCatV1.21B27,2013-08-03 11:33:00,
2013-08-03 04:38:00,53.7,52.0,29.97,West,277,10.0,11.0,94,0.00,,,0.00,WeatherCatV1.21B27,2013-08-03 11:38:00,
2013-08-03 04:43:00,53.7,52.0,29.97,West,278,12.0,14.0,94,0.00,,,0.00,WeatherCatV1.21B27,2013-08-03 11:43:00,
2013-08-03 04:48:00,53.8,52.1,29.97,West,277,4.0,6.0,94,0.00,,,0.00,WeatherCatV1.21B27,2013-08-03 11:48:00,
2013-08-03 04:53:00,53.9,52.2,29.97,WNW,288,9.0,12.0,94,0.00,,,0.00,WeatherCatV1.21B27,2013-08-03 11:53:00,
2013-08-03 04:58:00,54.0,52.3,29.97,NW,325,9.0,12.0,94,0.00,,,0.00,WeatherCatV1.21B27,2013-08-03 11:58:00,
2013-08-03 05:03:00,54.1,52.4,29.97,West,274,10.0,11.0,94,0.00,,,0.00,WeatherCatV1.21B27,2013-08-03 12:03:00,
2013-08-03 05:08:00,54.1,52.4,29.97,WNW,290,5.0,12.0,94,0.00,,,0.00,WeatherCatV1.21B27,2013-08-03 12:08:00,
2013-08-03 05:13:00,54.2,52.5,29.97,WNW,286,9.0,11.0,94,0.00,,,0.00,WeatherCatV1.21B27,2013-08-03 12:13:00,
2013-08-03 05:18:00,54.2,52.5,29.97,West,273,5.0,5.0,94,0.00,,,0.00,WeatherCatV1.21B27,2013-08-03 12:18:00,
2013-08-03 05:23:00,54.3,52.6,29.97,WNW,289,2.0,7.0,94,0.00,,,0.00,WeatherCatV1.21B27,2013-08-03 12:23:00,
2013-08-03 05:28:00,54.3,52.6,29.97,West,269,7.0,10.0,94,0.00,,,0.00,WeatherCatV1.21B27,2013-08-03 12:28:00,
2013-08-03 05:33:00,54.4,52.7,29.97,West,281,2.0,7.0,94,0.00,,,0.00,WeatherCatV1.21B27,2013-08-03 12:33:00,
2013-08-03 05:38:00,54.4,52.7,29.98,West,281,1.0,5.0,94,0.00,,,0.00,WeatherCatV1.21B27,2013-08-03 12:38:00,
2013-08-03 05:43:00,54.4,52.7,29.98,West,281,0.0,4.0,94,0.00,,,0.00,WeatherCatV1.21B27,2013-08-03 12:43:00,
2013-08-03 05:48:00,54.5,52.8,29.98,West,281,6.0,6.0,94,0.00,,,0.00,WeatherCatV1.21B27,2013-08-03 12:48:00,
2013-08-03 05:53:00,54.5,52.8,29.98,WNW,282,4.0,5.0,94,0.00,,,0.00,WeatherCatV1.21B27,2013-08-03 12:53:00,
2013-08-03 05:58:00,54.5,52.8,29.98,WNW,288,8.0,8.0,94,0.00,,,0.00,WeatherCatV1.21B27,2013-08-03 12:58:00,
2013-08-03 06:03:00,54.4,52.7,29.98,WNW,297,5.0,7.0,94,0.00,,,0.00,WeatherCatV1.21B27,2013-08-03 13:03:00,
2013-08-03 06:08:00,54.4,52.7,29.98,WNW,297,6.0,6.0,94,0.00,,,0.00,WeatherCatV1.21B27,2013-08-03 13:08:00,
2013-08-03 06:13:00,54.4,52.7,29.98,WNW,283,1.0,8.0,94,0.00,,,0.00,WeatherCatV1.21B27,2013-08-03 13:13:00,
2013-08-03 06:18:00,54.4,52.7,29.98,WNW,283,4.0,5.0,94,0.00,,,0.00,WeatherCatV1.21B27,2013-08-03 13:18:00,
2013-08-03 06:23:00,54.4,52.7,29.98,West,273,9.0,11.0,94,0.00,,,0.00,WeatherCatV1.21B27,2013-08-03 13:23:00,
2013-08-03 06:28:00,54.3,52.6,29.98,WNW,296,6.0,7.0,94,0.00,,,0.00,WeatherCatV1.21B27,2013-08-03 13:28:00,
2013-08-03 06:33:00,54.2,52.5,29.99,WSW,246,3.0,9.0,94,0.00,,,0.00,WeatherCatV1.21B27,2013-08-03 13:33:00,
2013-08-03 06:38:00,54.2,52.5,29.99,West,263,7.0,12.0,94,0.00,,,0.00,WeatherCatV1.21B27,2013-08-03 13:38:00,
2013-08-03 06:43:00,54.3,52.6,29.99,NW,304,8.0,8.0,94,0.00,,,0.00,WeatherCatV1.21B27,2013-08-03 13:43:00,
2013-08-03 06:48:00,54.2,52.5,29.99,West,273,7.0,11.0,94,0.00,,,0.00,WeatherCatV1.21B27,2013-08-03 13:48:00,
2013-08-03 06:53:00,54.3,52.6,29.99,West,276,7.0,9.0,94,0.00,,,0.00,WeatherCatV1.21B27,2013-08-03 13:53:00,
2013-08-03 06:58:00,54.2,52.5,29.99,West,272,9.0,9.0,94,0.00,,,0.00,WeatherCatV1.21B27,2013-08-03 13:58:00,
2013-08-03 07:03:00,54.3,52.6,29.99,West,261,6.0,6.0,94,0.00,,,0.00,WeatherCatV1.21B27,2013-08-03 14:03:00,
2013-08-03 07:08:00,54.2,52.5,29.99,West,276,5.0,6.0,94,0.00,,,0.00,WeatherCatV1.21B27,2013-08-03 14:08:00,
2013-08-03 07:13:00,54.3,52.6,30.00,West,279,6.0,8.0,94,0.00,,,0.00,WeatherCatV1.21B27,2013-08-03 14:13:00,
2013-08-03 07:18:00,54.2,52.5,30.00,WNW,291,6.0,7.0,94,0.00,,,0.00,WeatherCatV1.21B27,2013-08-03 14:18:00,
2013-08-03 07:23:00,54.2,52.5,30.00,WNW,290,9.0,10.0,94,0.00,,,0.00,WeatherCatV1.21B27,2013-08-03 14:23:00,
2013-08-03 07:28:00,54.3,52.6,30.00,West,271,8.0,11.0,94,0.00,,,0.00,WeatherCatV1.21B27,2013-08-03 14:28:00,
2013-08-03 07:33:00,54.3,52.3,30.00,WSW,246,6.0,9.0,93,0.00,,,0.00,WeatherCatV1.21B27,2013-08-03 14:33:00,
2013-08-03 07:38:00,54.4,52.4,30.00,WSW,244,8.0,12.0,93,0.00,,,0.00,WeatherCatV1.21B27,2013-08-03 14:38:00,
2013-08-03 07:43:00,54.6,52.9,30.00,WNW,290,4.0,9.0,94,0.00,,,0.00,WeatherCatV1.21B27,2013-08-03 14:43:00,
2013-08-03 07:48:00,54.8,52.8,30.00,WNW,286,8.0,9.0,93,0.00,,,0.00,WeatherCatV1.21B27,2013-08-03 14:48:00,
2013-08-03 07:53:00,54.9,52.9,30.00,West,273,6.0,11.0,93,0.00,,,0.00,WeatherCatV1.21B27,2013-08-03 14:53:00,
2013-08-03 07:58:00,55.0,53.0,30.00,West,281,10.0,13.0,93,0.00,,,0.00,WeatherCatV1.21B27,2013-08-03 14:58:00,
2013-08-03 08:03:00,54.9,52.9,30.01,WNW,297,10.0,12.0,93,0.00,,,0.00,WeatherCatV1.21B27,2013-08-03 15:03:00,
2013-08-03 08:08:00,54.9,52.9,30.01,West,275,11.0,12.0,93,0.00,,,0.00,WeatherCatV1.21B27,2013-08-03 15:08:00,
2013-08-03 08:13:00,54.9,52.9,30.01,West,272,4.0,9.0,93,0.00,,,0.00,WeatherCatV1.21B27,2013-08-03 15:13:00,
2013-08-03 08:18:00,54.9,52.9,30.01,West,271,7.0,13.0,93,0.00,,,0.00,WeatherCatV1.21B27,2013-08-03 15:18:00,
2013-08-03 08:23:00,54.9,52.9,30.01,SSW,213,9.0,11.0,93,0.00,,,0.00,WeatherCatV1.21B27,2013-08-03 15:23:00,
2013-08-03 08:28:00,55.1,53.1,30.01,SW,234,11.0,12.0,93,0.00,,,0.00,WeatherCatV1.21B27,2013-08-03 15:28:00,
2013-08-03 08:33:00,55.1,53.1,30.01,West,281,4.0,7.0,93,0.00,,,0.00,WeatherCatV1.21B27,2013-08-03 15:33:00,
2013-08-03 08:38:00,55.3,53.3,30.01,WSW,244,3.0,10.0,93,0.00,,,0.00,WeatherCatV1.21B27,2013-08-03 15:38:00,
2013-08-03 08:44:00,55.5,53.2,30.01,West,269,7.0,9.0,92,0.00,,,0.00,WeatherCatV1.21B27,2013-08-03 15:44:00,
2013-08-03 08:49:00,55.6,53.3,30.01,WSW,255,7.0,14.0,92,0.00,,,0.00,WeatherCatV1.21B27,2013-08-03 15:49:00,
2013-08-03 08:54:00,55.8,53.8,30.01,West,260,3.0,10.0,93,0.00,,,0.00,WeatherCatV1.21B27,2013-08-03 15:54:00,
2013-08-03 08:59:00,55.9,53.6,30.01,West,277,5.0,9.0,92,0.00,,,0.00,WeatherCatV1.21B27,2013-08-03 15:59:00,
2013-08-03 09:04:00,55.8,53.5,30.01,SW,236,10.0,10.0,92,0.00,,,0.00,WeatherCatV1.21B27,2013-08-03 16:04:00,
2013-08-03 09:09:00,56.0,53.7,30.01,WSW,252,6.0,6.0,92,0.00,,,0.00,WeatherCatV1.21B27,2013-08-03 16:09:00,
2013-08-03 09:14:00,56.1,53.8,30.01,WSW,241,8.0,14.0,92,0.00,,,0.00,WeatherCatV1.21B27,2013-08-03 16:14:00,
2013-08-03 09:19:00,56.1,53.8,30.01,WSW,242,13.0,13.0,92,0.00,,,0.00,WeatherCatV1.21B27,2013-08-03 16:19:00,
2013-08-03 09:24:00,56.1,53.8,30.01,WSW,249,5.0,8.0,92,0.00,,,0.00,WeatherCatV1.21B27,2013-08-03 16:24:00,
2013-08-03 09:29:00,56.3,54.0,30.01,WSW,251,6.0,6.0,92,0.00,,,0.00,WeatherCatV1.21B27,2013-08-03 16:29:00,
2013-08-03 09:34:00,56.6,54.3,30.01,West,269,5.0,7.0,92,0.00,,,0.00,WeatherCatV1.21B27,2013-08-03 16:34:00,
2013-08-03 09:39:00,56.6,54.0,30.01,WSW,258,9.0,9.0,91,0.00,,,0.00,WeatherCatV1.21B27,2013-08-03 16:39:00,
2013-08-03 09:44:00,56.6,54.0,30.01,West,265,6.0,10.0,91,0.00,,,0.00,WeatherCatV1.21B27,2013-08-03 16:44:00,
2013-08-03 09:49:00,56.8,54.2,30.02,West,272,11.0,13.0,91,0.00,,,0.00,WeatherCatV1.21B27,2013-08-03 16:49:00,
2013-08-03 09:54:00,56.7,54.1,30.02,West,274,11.0,13.0,91,0.00,,,0.00,WeatherCatV1.21B27,2013-08-03 16:54:00,
2013-08-03 09:59:00,56.6,54.0,30.02,West,265,12.0,13.0,91,0.00,,,0.00,WeatherCatV1.21B27,2013-08-03 16:59:00,
2013-08-03 10:04:00,56.6,53.7,30.02,WSW,252,5.0,16.0,90,0.00,,,0.00,WeatherCatV1.21B27,2013-08-03 17:04:00,
2013-08-03 10:09:00,56.9,54.3,30.02,West,268,6.0,11.0,91,0.00,,,0.00,WeatherCatV1.21B27,2013-08-03 17:09:00,
2013-08-03 10:14:00,57.4,54.8,30.01,WSW,242,10.0,13.0,91,0.00,,,0.00,WeatherCatV1.21B27,2013-08-03 17:14:00,
2013-08-03 10:19:00,57.6,54.7,30.02,West,275,9.0,9.0,90,0.00,,,0.00,WeatherCatV1.21B27,2013-08-03 17:19:00,
2013-08-03 10:24:00,57.8,54.6,30.02,WSW,252,7.0,12.0,89,0.00,,,0.00,WeatherCatV1.21B27,2013-08-03 17:24:00,
2013-08-03 10:29:00,58.3,55.1,30.02,West,271,4.0,7.0,89,0.00,,,0.00,WeatherCatV1.21B27,2013-08-03 17:29:00,
2013-08-03 10:34:00,58.4,54.9,30.02,WSW,252,4.0,7.0,88,0.00,,,0.00,WeatherCatV1.21B27,2013-08-03 17:34:00,
2013-08-03 10:39:00,58.7,55.2,30.02,WNW,288,4.0,6.0,88,0.00,,,0.00,WeatherCatV1.21B27,2013-08-03 17:39:00,
2013-08-03 10:44:00,58.7,54.8,30.02,WNW,284,11.0,15.0,87,0.00,,,0.00,WeatherCatV1.21B27,2013-08-03 17:44:00,
2013-08-03 10:49:00,58.5,54.3,30.02,WSW,238,9.0,15.0,86,0.00,,,0.00,WeatherCatV1.21B27,2013-08-03 17:49:00,
2013-08-03 10:54:00,58.8,54.9,30.02,West,267,9.0,11.0,87,0.00,,,0.00,WeatherCatV1.21B27,2013-08-03 17:54:00,
2013-08-03 10:59:00,59.0,55.1,30.01,West,261,6.0,12.0,87,0.00,,,0.00,WeatherCatV1.21B27,2013-08-03 17:59:00,
2013-08-03 11:04:00,59.3,55.1,30.02,West,280,5.0,8.0,86,0.00,,,0.00,WeatherCatV1.21B27,2013-08-03 18:04:00,
2013-08-03 11:09:00,59.3,54.8,30.02,WSW,247,7.0,15.0,85,0.00,,,0.00,WeatherCatV1.21B27,2013-08-03 18:09:00,
2013-08-03 11:14:00,59.5,54.7,30.02,WNW,291,13.0,16.0,84,0.00,,,0.00,WeatherCatV1.21B27,2013-08-03 18:14:00,
2013-08-03 11:19:00,59.8,55.0,30.02,WSW,256,11.0,12.0,84,0.00,,,0.00,WeatherCatV1.21B27,2013-08-03 18:19:00,
2013-08-03 11:24:00,59.8,54.6,30.02,West,280,16.0,19.0,83,0.00,,,0.00,WeatherCatV1.21B27,2013-08-03 18:24:00,
2013-08-03 11:29:00,59.6,55.1,30.02,WNW,294,5.0,16.0,85,0.00,,,0.00,WeatherCatV1.21B27,2013-08-03 18:29:00,
2013-08-03 11:34:00,59.9,55.0,30.01,West,275,12.0,17.0,84,0.00,,,0.00,WeatherCatV1.21B27,2013-08-03 18:34:00,
2013-08-03 11:40:00,59.6,54.4,30.01,West,260,4.0,18.0,83,0.00,,,0.00,WeatherCatV1.21B27,2013-08-03 18:40:00,
2013-08-03 11:45:00,59.8,54.6,30.01,West,259,18.0,19.0,83,0.00,,,0.00,WeatherCatV1.21B27,2013-08-03 18:45:00,
2013-08-03 11:50:00,60.0,54.8,30.02,WSW,249,18.0,18.0,83,0.00,,,0.00,WeatherCatV1.21B27,2013-08-03 18:50:00,
2013-08-03 11:55:00,60.2,55.0,30.01,WSW,243,8.0,15.0,83,0.00,,,0.00,WeatherCatV1.21B27,2013-08-03 18:55:00,
2013-08-03 12:00:00,60.4,54.9,30.01,WSW,238,12.0,18.0,82,0.00,,,0.00,WeatherCatV1.21B27,2013-08-03 19:00:00,
2013-08-03 12:05:00,60.6,55.1,30.01,West,264,3.0,9.0,82,0.00,,,0.00,WeatherCatV1.21B27,2013-08-03 19:05:00,
2013-08-03 12:10:00,60.8,55.3,30.01,West,273,5.0,11.0,82,0.00,,,0.00,WeatherCatV1.21B27,2013-08-03 19:10:00,
2013-08-03 12:15:00,61.3,55.4,30.01,West,267,3.0,14.0,81,0.00,,,0.00,WeatherCatV1.21B27,2013-08-03 19:15:00,
2013-08-03 12:20:00,60.8,55.3,30.01,West,263,8.0,9.0,82,0.00,,,0.00,WeatherCatV1.21B27,2013-08-03 19:20:00,
2013-08-03 12:25:00,60.4,55.2,30.01,WNW,300,7.0,12.0,83,0.00,,,0.00,WeatherCatV1.21B27,2013-08-03 19:25:00,
2013-08-03 12:30:00,61.0,55.5,30.01,WNW,290,4.0,12.0,82,0.00,,,0.00,WeatherCatV1.21B27,2013-08-03 19:30:00,
2013-08-03 12:35:00,61.0,55.1,30.01,WSW,247,19.0,22.0,81,0.00,,,0.00,WeatherCatV1.21B27,2013-08-03 19:35:00,
2013-08-03 12:40:00,60.8,55.6,30.01,West,274,3.0,9.0,83,0.00,,,0.00,WeatherCatV1.21B27,2013-08-03 19:40:00,
2013-08-03 12:45:00,60.9,55.4,30.00,WSW,238,10.0,14.0,82,0.00,,,0.00,WeatherCatV1.21B27,2013-08-03 19:45:00,
2013-08-03 12:50:00,60.9,55.0,30.01,WSW,251,13.0,18.0,81,0.00,,,0.00,WeatherCatV1.21B27,2013-08-03 19:50:00,
2013-08-03 12:55:00,61.1,55.6,30.01,WSW,255,9.0,17.0,82,0.00,,,0.00,WeatherCatV1.21B27,2013-08-03 19:55:00,
2013-08-03 13:00:00,61.5,55.3,30.00,West,271,6.0,9.0,80,0.00,,,0.00,WeatherCatV1.21B27,2013-08-03 20:00:00,
2013-08-03 13:05:00,61.6,55.7,30.00,WSW,257,10.0,12.0,81,0.00,,,0.00,WeatherCatV1.21B27,2013-08-03 20:05:00,
2013-08-03 13:10:00,62.4,55.8,30.01,West,273,9.0,11.0,79,0.00,,,0.00,WeatherCatV1.21B27,2013-08-03 20:10:00,
2013-08-03 13:15:00,62.0,55.4,30.00,West,278,11.0,16.0,79,0.00,,,0.00,WeatherCatV1.21B27,2013-08-03 20:15:00,
2013-08-03 13:20:00,61.6,55.0,30.00,WNW,287,8.0,16.0,79,0.00,,,0.00,WeatherCatV1.21B27,2013-08-03 20:20:00,
2013-08-03 13:25:00,62.1,55.8,30.00,WSW,254,4.0,8.0,80,0.00,,,0.00,WeatherCatV1.21B27,2013-08-03 20:25:00,
2013-08-03 13:30:00,62.2,55.6,30.00,WNW,289,11.0,16.0,79,0.00,,,0.00,WeatherCatV1.21B27,2013-08-03 20:30:00,
2013-08-03 13:35:00,62.6,55.6,30.00,WNW,295,7.0,14.0,78,0.00,,,0.00,WeatherCatV1.21B27,2013-08-03 20:35:00,
2013-08-03 13:40:00,62.4,55.4,30.00,WNW,293,11.0,14.0,78,0.00,,,0.00,WeatherCatV1.21B27,2013-08-03 20:40:00,
2013-08-03 13:45:00,62.3,55.7,30.00,NW,306,10.0,11.0,79,0.00,,,0.00,WeatherCatV1.21B27,2013-08-03 20:45:00,
2013-08-03 13:50:00,62.4,55.8,30.00,West,275,11.0,14.0,79,0.00,,,0.00,WeatherCatV1.21B27,2013-08-03 20:50:00,
2013-08-03 13:55:00,63.1,55.8,29.99,WNW,288,7.0,13.0,77,0.00,,,0.00,WeatherCatV1.21B27,2013-08-03 20:55:00,
2013-08-03 14:00:00,63.4,56.1,29.99,WNW,284,13.0,16.0,77,0.00,,,0.00,WeatherCatV1.21B27,2013-08-03 21:00:00,
2013-08-03 14:05:00,63.4,56.1,29.99,WSW,256,16.0,16.0,77,0.00,,,0.00,WeatherCatV1.21B27,2013-08-03 21:05:00,
2013-08-03 14:10:00,63.3,56.0,29.99,WNW,290,9.0,13.0,77,0.00,,,0.00,WeatherCatV1.21B27,2013-08-03 21:10:00,
2013-08-03 14:15:00,62.9,55.9,29.99,West,278,12.0,17.0,78,0.00,,,0.00,WeatherCatV1.21B27,2013-08-03 21:15:00,
2013-08-03 14:20:00,62.9,55.9,29.99,WNW,288,9.0,13.0,78,0.00,,,0.00,WeatherCatV1.21B27,2013-08-03 21:20:00,
2013-08-03 14:25:00,62.7,55.7,29.99,West,281,4.0,18.0,78,0.00,,,0.00,WeatherCatV1.21B27,2013-08-03 21:25:00,
2013-08-03 14:30:00,62.7,55.7,29.99,WNW,293,4.0,8.0,78,0.00,,,0.00,WeatherCatV1.21B27,2013-08-03 21:30:00,
2013-08-03 14:35:00,62.5,55.5,29.99,West,277,16.0,16.0,78,0.00,,,0.00,WeatherCatV1.21B27,2013-08-03 21:35:00,
2013-08-03 14:40:00,62.9,55.9,29.98,WSW,254,5.0,13.0,78,0.00,,,0.00,WeatherCatV1.21B27,2013-08-03 21:40:00,
2013-08-03 14:45:00,63.7,56.0,29.99,WSW,242,7.0,14.0,76,0.00,,,0.00,WeatherCatV1.21B27,2013-08-03 21:45:00,
2013-08-03 14:50:00,63.2,55.9,29.98,West,279,11.0,17.0,77,0.00,,,0.00,WeatherCatV1.21B27,2013-08-03 21:50:00,
2013-08-03 14:55:00,63.6,55.5,29.98,West,271,17.0,17.0,75,0.00,,,0.00,WeatherCatV1.21B27,2013-08-03 21:55:00,
2013-08-03 15:00:00,62.9,55.6,29.98,West,281,10.0,13.0,77,0.00,,,0.00,WeatherCatV1.21B27,2013-08-03 22:00:00,
2013-08-03 15:05:00,63.2,55.9,29.98,West,273,13.0,20.0,77,0.00,,,0.00,WeatherCatV1.21B27,2013-08-03 22:05:00,
2013-08-03 15:10:00,62.5,55.5,29.98,WSW,252,11.0,12.0,78,0.00,,,0.00,WeatherCatV1.21B27,2013-08-03 22:10:00,
2013-08-03 15:15:00,62.5,55.2,29.99,West,270,14.0,17.0,77,0.00,,,0.00,WeatherCatV1.21B27,2013-08-03 22:15:00,
2013-08-03 15:20:00,62.0,55.1,29.98,WNW,302,11.0,19.0,78,0.00,,,0.00,WeatherCatV1.21B27,2013-08-03 22:20:00,
2013-08-03 15:25:00,61.7,55.1,29.98,WNW,288,13.0,22.0,79,0.00,,,0.00,WeatherCatV1.21B27,2013-08-03 22:25:00,
2013-08-03 15:30:00,61.7,55.5,29.98,West,276,14.0,20.0,80,0.00,,,0.00,WeatherCatV1.21B27,2013-08-03 22:30:00,
2013-08-03 15:36:00,62.1,55.5,29.98,West,267,12.0,17.0,79,0.00,,,0.00,WeatherCatV1.21B27,2013-08-03 22:36:00,
2013-08-03 15:41:00,62.3,55.3,29.98,West,270,16.0,19.0,78,0.00,,,0.00,WeatherCatV1.21B27,2013-08-03 22:41:00,
2013-08-03 15:46:00,61.2,55.0,29.97,WNW,302,12.0,19.0,80,0.00,,,0.00,WeatherCatV1.21B27,2013-08-03 22:46:00,
2013-08-03 15:51:00,61.6,55.7,29.97,WNW,298,13.0,14.0,81,0.00,,,0.00,WeatherCatV1.21B27,2013-08-03 22:51:00,
2013-08-03 15:56:00,61.8,55.6,29.97,West,262,17.0,17.0,80,0.00,,,0.00,WeatherCatV1.21B27,2013-08-03 22:56:00,
2013-08-03 16:01:00,61.8,55.2,29.97,WNW,291,16.0,16.0,79,0.00,,,0.00,WeatherCatV1.21B27,2013-08-03 23:01:00,
2013-08-03 16:06:00,61.8,55.6,29.97,WNW,294,15.0,16.0,80,0.00,,,0.00,WeatherCatV1.21B27,2013-08-03 23:06:00,
2013-08-03 16:11:00,61.9,55.7,29.97,WNW,294,9.0,16.0,80,0.00,,,0.00,WeatherCatV1.21B27,2013-08-03 23:11:00,
2013-08-03 16:16:00,61.7,55.5,29.97,West,268,9.0,18.0,80,0.00,,,0.00,WeatherCatV1.21B27,2013-08-03 23:16:00,
2013-08-03 16:21:00,61.9,55.7,29.97,NW,309,9.0,12.0,80,0.00,,,0.00,WeatherCatV1.21B27,2013-08-03 23:21:00,
2013-08-03 16:26:00,62.0,55.4,29.97,WNW,284,11.0,19.0,79,0.00,,,0.00,WeatherCatV1.21B27,2013-08-03 23:26:00,
2013-08-03 16:31:00,61.9,55.7,29.96,WSW,252,12.0,12.0,80,0.00,,,0.00,WeatherCatV1.21B27,2013-08-03 23:31:00,
2013-08-03 16:36:00,61.9,55.3,29.96,West,270,13.0,13.0,79,0.00,,,0.00,WeatherCatV1.21B27,2013-08-03 23:36:00,
2013-08-03 16:41:00,61.7,55.1,29.96,West,279,13.0,15.0,79,0.00,,,0.00,WeatherCatV1.21B27,2013-08-03 23:41:00,
2013-08-03 16:46:00,61.9,55.3,29.96,WNW,283,5.0,14.0,79,0.00,,,0.00,WeatherCatV1.21B27,2013-08-03 23:46:00,
2013-08-03 16:51:00,61.7,55.1,29.96,NW,314,4.0,9.0,79,0.00,,,0.00,WeatherCatV1.21B27,2013-08-03 23:51:00,
2013-08-03 16:56:00,61.5,55.3,29.96,NW,313,7.0,9.0,80,0.00,,,0.00,WeatherCatV1.21B27,2013-08-03 23:56:00,
2013-08-03 17:01:00,61.5,55.3,29.96,WNW,292,7.0,9.0,80,0.00,,,0.00,WeatherCatV1.21B27,2013-08-04 00:01:00,
2013-08-03 17:06:00,61.4,55.2,29.96,WSW,257,4.0,10.0,80,0.00,,,0.00,WeatherCatV1.21B27,2013-08-04 00:06:00,
2013-08-03 17:11:00,61.3,55.1,29.96,West,273,8.0,14.0,80,0.00,,,0.00,WeatherCatV1.21B27,2013-08-04 00:11:00,
2013-08-03 17:16:00,61.2,55.3,29.96,WNW,290,8.0,10.0,81,0.00,,,0.00,WeatherCatV1.21B27,2013-08-04 00:16:00,
2013-08-03 17:21:00,60.9,54.7,29.96,WNW,282,4.0,13.0,80,0.00,,,0.00,WeatherCatV1.21B27,2013-08-04 00:21:00,
2013-08-03 17:26:00,60.8,54.9,29.96,West,278,7.0,13.0,81,0.00,,,0.00,WeatherCatV1.21B27,2013-08-04 00:26:00,
2013-08-03 17:31:00,61.1,55.2,29.96,NW,305,3.0,7.0,81,0.00,,,0.00,WeatherCatV1.21B27,2013-08-04 00:31:00,
2013-08-03 17:36:00,60.8,54.9,29.95,WSW,252,10.0,12.0,81,0.00,,,0.00,WeatherCatV1.21B27,2013-08-04 00:36:00,
2013-08-03 17:41:00,60.1,54.6,29.96,NW,321,3.0,13.0,82,0.00,,,0.00,WeatherCatV1.21B27,2013-08-04 00:41:00,
2013-08-03 17:46:00,60.1,54.9,29.95,West,273,1.0,5.0,83,0.00,,,0.00,WeatherCatV1.21B27,2013-08-04 00:46:00,
2013-08-03 17:51:00,59.8,54.6,29.95,WSW,254,9.0,12.0,83,0.00,,,0.00,WeatherCatV1.21B27,2013-08-04 00:51:00,
2013-08-03 17:56:00,59.7,54.5,29.95,NNW,328,3.0,14.0,83,0.00,,,0.00,WeatherCatV1.21B27,2013-08-04 00:56:00,
2013-08-03 18:01:00,59.8,55.0,29.96,WSW,240,1.0,8.0,84,0.00,,,0.00,WeatherCatV1.21B27,2013-08-04 01:01:00,
2013-08-03 18:06:00,60.0,54.8,29.95,NW,305,7.0,13.0,83,0.00,,,0.00,WeatherCatV1.21B27,2013-08-04 01:06:00,
2013-08-03 18:11:00,59.6,54.4,29.95,WNW,290,7.0,8.0,83,0.00,,,0.00,WeatherCatV1.21B27,2013-08-04 01:11:00,
2013-08-03 18:16:00,59.3,54.5,29.96,West,262,3.0,9.0,84,0.00,,,0.00,WeatherCatV1.21B27,2013-08-04 01:16:00,
2013-08-03 18:21:00,58.8,54.3,29.96,WNW,287,1.0,12.0,85,0.00,,,0.00,WeatherCatV1.21B27,2013-08-04 01:21:00,
2013-08-03 18:26:00,59.0,54.5,29.96,WNW,294,8.0,10.0,85,0.00,,,0.00,WeatherCatV1.21B27,2013-08-04 01:26:00,
2013-08-03 18:31:00,58.7,54.2,29.96,WNW,298,8.0,17.0,85,0.00,,,0.00,WeatherCatV1.21B27,2013-08-04 01:31:00,
2013-08-03 18:36:00,58.4,54.2,29.95,WSW,247,5.0,9.0,86,0.00,,,0.00,WeatherCatV1.21B27,2013-08-04 01:36:00,
2013-08-03 18:41:00,58.6,54.4,29.96,WNW,286,5.0,5.0,86,0.00,,,0.00,WeatherCatV1.21B27,2013-08-04 01:41:00,
2013-08-03 18:46:00,58.7,54.2,29.95,NW,312,3.0,9.0,85,0.00,,,0.00,WeatherCatV1.21B27,2013-08-04 01:46:00,
2013-08-03 18:51:00,58.1,53.6,29.95,WNW,292,3.0,11.0,85,0.00,,,0.00,WeatherCatV1.21B27,2013-08-04 01:51:00,
2013-08-03 18:56:00,57.8,53.6,29.95,West,277,7.0,7.0,86,0.00,,,0.00,WeatherCatV1.21B27,2013-08-04 01:56:00,
2013-08-03 19:01:00,57.6,53.4,29.95,WNW,290,2.0,9.0,86,0.00,,,0.00,WeatherCatV1.21B27,2013-08-04 02:01:00,
2013-08-03 19:06:00,57.3,53.5,29.95,WNW,294,5.0,7.0,87,0.00,,,0.00,WeatherCatV1.21B27,2013-08-04 02:06:00,
2013-08-03 19:11:00,57.0,53.2,29.95,WNW,284,4.0,8.0,87,0.00,,,0.00,WeatherCatV1.21B27,2013-08-04 02:11:00,
2013-08-03 19:16:00,57.1,53.6,29.95,WNW,284,0.0,4.0,88,0.00,,,0.00,WeatherCatV1.21B27,2013-08-04 02:16:00,
2013-08-03 19:21:00,57.1,53.6,29.95,NW,309,6.0,9.0,88,0.00,,,0.00,WeatherCatV1.21B27,2013-08-04 02:21:00,
2013-08-03 19:26:00,56.9,53.4,29.95,WNW,283,5.0,10.0,88,0.00,,,0.00,WeatherCatV1.21B27,2013-08-04 02:26:00,
2013-08-03 19:31:00,56.6,53.4,29.95,WNW,286,7.0,7.0,89,0.00,,,0.00,WeatherCatV1.21B27,2013-08-04 02:31:00,
2013-08-03 19:36:00,56.5,53.3,29.95,WNW,286,7.0,8.0,89,0.00,,,0.00,WeatherCatV1.21B27,2013-08-04 02:36:00,
2013-08-03 19:41:00,56.5,53.3,29.95,West,259,4.0,9.0,89,0.00,,,0.00,WeatherCatV1.21B27,2013-08-04 02:41:00,
2013-08-03 19:46:00,56.4,53.2,29.95,NW,304,10.0,10.0,89,0.00,,,0.00,WeatherCatV1.21B27,2013-08-04 02:46:00,
2013-08-03 19:51:00,56.1,53.2,29.95,WNW,283,7.0,11.0,90,0.00,,,0.00,WeatherCatV1.21B27,2013-08-04 02:51:00,
2013-08-03 19:56:00,56.0,53.1,29.95,WNW,296,8.0,12.0,90,0.00,,,0.00,WeatherCatV1.21B27,2013-08-04 02:56:00,
2013-08-03 20:01:00,55.9,53.3,29.95,WNW,302,9.0,12.0,91,0.00,,,0.00,WeatherCatV1.21B27,2013-08-04 03:01:00,
2013-08-03 20:06:00,55.8,53.2,29.96,West,276,13.0,14.0,91,0.00,,,0.00,WeatherCatV1.21B27,2013-08-04 03:06:00,
2013-08-03 20:11:00,55.7,53.1,29.96,WNW,300,8.0,9.0,91,0.00,,,0.00,WeatherCatV1.21B27,2013-08-04 03:11:00,
2013-08-03 20:17:00,55.5,52.9,29.96,WNW,292,11.0,13.0,91,0.00,,,0.00,WeatherCatV1.21B27,2013-08-04 03:17:00,
2013-08-03 20:22:00,55.3,53.0,29.96,West,274,11.0,17.0,92,0.00,,,0.00,WeatherCatV1.21B27,2013-08-04 03:22:00,
2013-08-03 20:27:00,55.2,52.9,29.97,WNW,290,7.0,15.0,92,0.00,,,0.00,WeatherCatV1.21B27,2013-08-04 03:27:00,
2013-08-03 20:32:00,55.2,52.9,29.96,West,270,10.0,14.0,92,0.00,,,0.00,WeatherCatV1.21B27,2013-08-04 03:32:00,
2013-08-03 20:37:00,55.3,53.3,29.96,West,279,10.0,14.0,93,0.00,,,0.00,WeatherCatV1.21B27,2013-08-04 03:37:00,
2013-08-03 20:42:00,55.3,53.3,29.97,West,279,8.0,11.0,93,0.00,,,0.00,WeatherCatV1.21B27,2013-08-04 03:42:00,
2013-08-03 20:47:00,55.3,53.3,29.97,WSW,253,7.0,10.0,93,0.00,,,0.00,WeatherCatV1.21B27,2013-08-04 03:47:00,
2013-08-03 20:52:00,55.1,53.1,29.97,WNW,282,12.0,15.0,93,0.00,,,0.00,WeatherCatV1.21B27,2013-08-04 03:52:00,
2013-08-03 20:57:00,55.0,53.0,29.97,WSW,257,6.0,13.0,93,0.00,,,0.00,WeatherCatV1.21B27,2013-08-04 03:57:00,
2013-08-03 21:01:00,54.9,52.9,29.97,West,269,8.0,18.0,93,0.00,,,0.00,WeatherCatV1.21B27,2013-08-04 04:01:00,
2013-08-03 21:02:00,54.9,52.9,29.97,WNW,283,8.0,18.0,93,0.00,,,0.00,WeatherCatV1.21B27,2013-08-04 04:02:00,
2013-08-03 21:03:00,54.8,52.8,29.97,WNW,283,10.0,14.0,93,0.00,,,0.00,WeatherCatV1.21B27,2013-08-04 04:03:00,
2013-08-03 21:06:00,54.8,53.1,29.97,WNW,297,5.0,14.0,94,0.00,,,0.00,WeatherCatV1.21B27,2013-08-04 04:06:00,
2013-08-03 21:07:00,54.8,53.1,29.97,WNW,296,12.0,14.0,94,0.00,,,0.00,WeatherCatV1.21B27,2013-08-04 04:07:00,
2013-08-03 21:12:00,54.6,52.6,29.97,WNW,290,5.0,8.0,93,0.00,,,0.00,WeatherCatV1.21B27,2013-08-04 04:12:00,
2013-08-03 21:17:00,54.5,52.8,29.97,NW,313,8.0,13.0,94,0.00,,,0.00,WeatherCatV1.21B27,2013-08-04 04:17:00,
2013-08-03 21:22:00,54.4,52.7,29.97,WNW,294,9.0,10.0,94,0.00,,,0.00,WeatherCatV1.21B27,2013-08-04 04:22:00,
2013-08-03 21:27:00,54.3,52.6,29.98,WNW,284,8.0,15.0,94,0.00,,,0.00,WeatherCatV1.21B27,2013-08-04 04:27:00,
2013-08-03 21:32:00,54.2,52.5,29.98,WNW,294,11.0,11.0,94,0.00,,,0.00,WeatherCatV1.21B27,2013-08-04 04:32:00,
2013-08-03 21:37:00,54.0,52.3,29.98,WNW,291,6.0,16.0,94,0.00,,,0.00,WeatherCatV1.21B27,2013-08-04 04:37:00,
2013-08-03 21:42:00,53.9,52.2,29.98,WNW,288,7.0,9.0,94,0.00,,,0.00,WeatherCatV1.21B27,2013-08-04 04:42:00,
2013-08-03 21:47:00,53.9,52.2,29.99,West,269,12.0,12.0,94,0.00,,,0.00,WeatherCatV1.21B27,2013-08-04 04:47:00,
2013-08-03 21:52:00,54.2,52.5,29.99,West,263,8.0,10.0,94,0.00,,,0.00,WeatherCatV1.21B27,2013-08-04 04:52:00,
2013-08-03 21:57:00,54.2,52.5,29.99,WSW,257,8.0,11.0,94,0.00,,,0.00,WeatherCatV1.21B27,2013-08-04 04:57:00,
2013-08-03 22:02:00,54.3,52.6,29.99,West,267,9.0,15.0,94,0.00,,,0.00,WeatherCatV1.21B27,2013-08-04 05:02:00,
2013-08-03 22:07:00,54.1,52.4,29.99,WSW,257,7.0,13.0,94,0.00,,,0.00,WeatherCatV1.21B27,2013-08-04 05:07:00,
2013-08-03 22:12:00,54.1,52.4,29.99,WSW,252,4.0,11.0,94,0.00,,,0.00,WeatherCatV1.21B27,2013-08-04 05:12:00,
2013-08-03 22:17:00,54.3,52.6,30.00,WSW,251,6.0,11.0,94,0.00,,,0.00,WeatherCatV1.21B27,2013-08-04 05:17:00,
2013-08-03 22:22:00,54.5,52.8,30.00,West,269,11.0,11.0,94,0.00,,,0.00,WeatherCatV1.21B27,2013-08-04 05:22:00,
2013-08-03 22:27:00,54.6,52.9,30.00,WSW,252,8.0,9.0,94,0.00,,,0.00,WeatherCatV1.21B27,2013-08-04 05:27:00,
2013-08-03 22:32:00,54.7,53.0,29.99,WSW,258,5.0,8.0,94,0.00,,,0.00,WeatherCatV1.21B27,2013-08-04 05:32:00,
2013-08-03 22:37:00,54.7,53.0,29.99,West,270,5.0,9.0,94,0.00,,,0.00,WeatherCatV1.21B27,2013-08-04 05:37:00,
2013-08-03 22:42:00,54.7,53.0,30.00,West,279,6.0,11.0,94,0.00,,,0.00,WeatherCatV1.21B27,2013-08-04 05:42:00,
2013-08-03 22:47:00,54.6,52.9,29.99,West,265,3.0,8.0,94,0.00,,,0.00,WeatherCatV1.21B27,2013-08-04 05:47:00,
2013-08-03 22:52:00,54.6,52.9,30.00,West,267,5.0,10.0,94,0.00,,,0.00,WeatherCatV1.21B27,2013-08-04 05:52:00,
2013-08-03 22:58:00,54.5,52.8,30.00,WSW,241,9.0,11.0,94,0.00,,,0.00,WeatherCatV1.21B27,2013-08-04 05:58:00,
2013-08-03 23:03:00,54.4,52.7,30.00,West,259,6.0,9.0,94,0.00,,,0.00,WeatherCatV1.21B27,2013-08-04 06:03:00,
2013-08-03 23:08:00,54.4,52.7,30.00,West,267,13.0,13.0,94,0.00,,,0.00,WeatherCatV1.21B27,2013-08-04 06:08:00,
2013-08-03 23:13:00,54.4,52.7,30.00,West,266,4.0,6.0,94,0.00,,,0.00,WeatherCatV1.21B27,2013-08-04 06:13:00,
2013-08-03 23:18:00,54.4,52.7,30.00,WSW,258,6.0,9.0,94,0.00,,,0.00,WeatherCatV1.21B27,2013-08-04 06:18:00,
2013-08-03 23:23:00,54.3,52.6,30.00,West,271,5.0,9.0,94,0.00,,,0.00,WeatherCatV1.21B27,2013-08-04 06:23:00,
2013-08-03 23:28:00,54.2,52.5,30.00,WSW,252,7.0,17.0,94,0.00,,,0.00,WeatherCatV1.21B27,2013-08-04 06:28:00,
2013-08-03 23:33:00,54.2,52.5,30.00,West,276,9.0,11.0,94,0.00,,,0.00,WeatherCatV1.21B27,2013-08-04 06:33:00,
2013-08-03 23:38:00,54.1,52.4,30.00,West,276,3.0,6.0,94,0.00,,,0.00,WeatherCatV1.21B27,2013-08-04 06:38:00,
2013-08-03 23:43:00,54.1,52.4,30.00,WNW,289,3.0,8.0,94,0.00,,,0.00,WeatherCatV1.21B27,2013-08-04 06:43:00,
2013-08-03 23:48:00,54.1,52.4,30.00,WNW,288,5.0,5.0,94,0.00,,,0.00,WeatherCatV1.21B27,2013-08-04 06:48:00,
2013-08-03 23:53:00,54.2,52.5,30.00,WSW,257,15.0,15.0,94,0.00,,,0.00,WeatherCatV1.21B27,2013-08-04 06:53:00,
2013-08-03 23:58:00,54.1,52.4,30.00,West,263,10.0,13.0,94,0.00,,,0.00,WeatherCatV1.21B27,2013-08-04 06:58:00,